sensor_id;sensor_type;location;lat;lon;timestamp;temperature;humidity
48946;DHT22;34999;50.940;3.998;2022-07-29T00:01:41;18.10;99.90
48946;DHT22;34999;50.940;3.998;2022-07-29T00:04:09;18.10;99.90
48946;DHT22;34999;50.940;3.998;2022-07-29T00:06:39;18.10;99.90
48946;DHT22;34999;50.940;3.998;2022-07-29T00:09:08;18.00;99.90
48946;DHT22;34999;50.940;3.998;2022-07-29T00:11:37;18.00;99.90
48946;DHT22;34999;50.940;3.998;2022-07-29T00:14:07;18.00;99.90
48946;DHT22;34999;50.940;3.998;2022-07-29T00:16:36;18.00;99.90
48946;DHT22;34999;50.940;3.998;2022-07-29T00:19:04;17.90;99.90
48946;DHT22;34999;50.940;3.998;2022-07-29T00:21:34;17.90;99.90
48946;DHT22;34999;50.940;3.998;2022-07-29T00:24:03;17.90;99.90
48946;DHT22;34999;50.940;3.998;2022-07-29T00:26:31;17.90;99.90
48946;DHT22;34999;50.940;3.998;2022-07-29T00:29:01;17.80;99.90
48946;DHT22;34999;50.940;3.998;2022-07-29T00:31:51;17.80;99.90
48946;DHT22;34999;50.940;3.998;2022-07-29T00:34:20;17.80;99.90
48946;DHT22;34999;50.940;3.998;2022-07-29T00:37:05;17.80;99.90
48946;DHT22;34999;50.940;3.998;2022-07-29T00:39:34;17.80;99.90
48946;DHT22;34999;50.940;3.998;2022-07-29T00:42:03;17.70;99.90
48946;DHT22;34999;50.940;3.998;2022-07-29T00:44:36;17.70;99.90
48946;DHT22;34999;50.940;3.998;2022-07-29T00:47:06;17.70;99.90
48946;DHT22;34999;50.940;3.998;2022-07-29T00:49:36;17.60;99.90
48946;DHT22;34999;50.940;3.998;2022-07-29T00:52:07;17.60;99.90
48946;DHT22;34999;50.940;3.998;2022-07-29T00:54:36;17.60;99.90
48946;DHT22;34999;50.940;3.998;2022-07-29T00:57:11;17.50;99.90
48946;DHT22;34999;50.940;3.998;2022-07-29T00:59:41;17.50;99.90
48946;DHT22;34999;50.940;3.998;2022-07-29T01:02:11;17.40;99.90
48946;DHT22;34999;50.940;3.998;2022-07-29T01:04:39;17.30;99.90
48946;DHT22;34999;50.940;3.998;2022-07-29T01:07:08;17.30;99.90
48946;DHT22;34999;50.940;3.998;2022-07-29T01:09:38;17.30;99.90
48946;DHT22;34999;50.940;3.998;2022-07-29T01:12:15;17.20;99.90
48946;DHT22;34999;50.940;3.998;2022-07-29T01:14:46;17.20;99.90
48946;DHT22;34999;50.940;3.998;2022-07-29T01:17:21;17.10;99.90
48946;DHT22;34999;50.940;3.998;2022-07-29T01:19:56;17.00;99.90
48946;DHT22;34999;50.940;3.998;2022-07-29T01:22:30;17.00;99.90
48946;DHT22;34999;50.940;3.998;2022-07-29T01:28:13;16.80;99.90
48946;DHT22;34999;50.940;3.998;2022-07-29T01:30:51;16.70;99.90
48946;DHT22;34999;50.940;3.998;2022-07-29T01:33:21;16.60;99.90
48946;DHT22;34999;50.940;3.998;2022-07-29T01:36:13;16.50;99.90
48946;DHT22;34999;50.940;3.998;2022-07-29T01:38:45;16.50;99.90
48946;DHT22;34999;50.940;3.998;2022-07-29T01:41:17;16.40;99.90
48946;DHT22;34999;50.940;3.998;2022-07-29T01:43:51;16.40;99.90
48946;DHT22;34999;50.940;3.998;2022-07-29T01:46:28;16.30;99.90
48946;DHT22;34999;50.940;3.998;2022-07-29T01:49:04;16.20;99.90
48946;DHT22;34999;50.940;3.998;2022-07-29T01:51:40;16.10;99.90
48946;DHT22;34999;50.940;3.998;2022-07-29T01:54:14;16.10;99.90
48946;DHT22;34999;50.940;3.998;2022-07-29T01:56:48;16.00;99.90
48946;DHT22;34999;50.940;3.998;2022-07-29T01:59:18;16.00;99.90
48946;DHT22;34999;50.940;3.998;2022-07-29T02:01:52;15.90;99.90
48946;DHT22;34999;50.940;3.998;2022-07-29T02:04:23;15.90;99.90
48946;DHT22;34999;50.940;3.998;2022-07-29T02:07:00;15.80;99.90
48946;DHT22;34999;50.940;3.998;2022-07-29T02:09:30;15.80;99.90
48946;DHT22;34999;50.940;3.998;2022-07-29T02:12:00;15.70;99.90
48946;DHT22;34999;50.940;3.998;2022-07-29T02:14:33;15.70;99.90
48946;DHT22;34999;50.940;3.998;2022-07-29T02:17:04;15.70;99.90
48946;DHT22;34999;50.940;3.998;2022-07-29T02:19:34;15.60;99.90
48946;DHT22;34999;50.940;3.998;2022-07-29T02:22:06;15.60;99.90
48946;DHT22;34999;50.940;3.998;2022-07-29T02:24:36;15.60;99.90
48946;DHT22;34999;50.940;3.998;2022-07-29T02:27:05;15.50;99.90
48946;DHT22;34999;50.940;3.998;2022-07-29T02:29:37;15.50;99.90
48946;DHT22;34999;50.940;3.998;2022-07-29T02:32:10;15.50;99.90
48946;DHT22;34999;50.940;3.998;2022-07-29T02:34:40;15.40;99.90
48946;DHT22;34999;50.940;3.998;2022-07-29T02:37:12;15.40;99.90
48946;DHT22;34999;50.940;3.998;2022-07-29T02:39:42;15.40;99.90
48946;DHT22;34999;50.940;3.998;2022-07-29T02:42:14;15.40;99.90
48946;DHT22;34999;50.940;3.998;2022-07-29T02:44:44;15.40;99.90
48946;DHT22;34999;50.940;3.998;2022-07-29T02:47:20;15.40;99.90
48946;DHT22;34999;50.940;3.998;2022-07-29T02:49:55;15.30;99.90
48946;DHT22;34999;50.940;3.998;2022-07-29T02:52:29;15.30;99.90
48946;DHT22;34999;50.940;3.998;2022-07-29T02:55:02;15.30;99.90
48946;DHT22;34999;50.940;3.998;2022-07-29T02:57:42;15.20;99.90
48946;DHT22;34999;50.940;3.998;2022-07-29T03:00:24;15.20;99.90
48946;DHT22;34999;50.940;3.998;2022-07-29T03:02:59;15.10;99.90
48946;DHT22;34999;50.940;3.998;2022-07-29T03:05:28;15.10;99.90
48946;DHT22;34999;50.940;3.998;2022-07-29T03:07:58;15.10;99.90
48946;DHT22;34999;50.940;3.998;2022-07-29T03:10:28;15.10;99.90
48946;DHT22;34999;50.940;3.998;2022-07-29T03:12:58;15.10;99.90
48946;DHT22;34999;50.940;3.998;2022-07-29T03:15:27;15.00;99.90
48946;DHT22;34999;50.940;3.998;2022-07-29T03:17:58;15.00;99.90
48946;DHT22;34999;50.940;3.998;2022-07-29T03:20:28;15.00;99.90
48946;DHT22;34999;50.940;3.998;2022-07-29T03:22:56;15.00;99.90
48946;DHT22;34999;50.940;3.998;2022-07-29T03:25:25;14.90;99.90
48946;DHT22;34999;50.940;3.998;2022-07-29T03:27:54;14.90;99.90
48946;DHT22;34999;50.940;3.998;2022-07-29T03:30:23;14.80;99.90
48946;DHT22;34999;50.940;3.998;2022-07-29T03:32:53;14.80;99.90
48946;DHT22;34999;50.940;3.998;2022-07-29T03:35:26;14.70;99.90
48946;DHT22;34999;50.940;3.998;2022-07-29T03:37:55;14.70;99.90
48946;DHT22;34999;50.940;3.998;2022-07-29T03:40:27;14.60;99.90
48946;DHT22;34999;50.940;3.998;2022-07-29T03:42:59;14.50;99.90
48946;DHT22;34999;50.940;3.998;2022-07-29T03:45:30;14.50;99.90
48946;DHT22;34999;50.940;3.998;2022-07-29T03:48:02;14.50;99.90
48946;DHT22;34999;50.940;3.998;2022-07-29T03:50:35;14.40;99.90
48946;DHT22;34999;50.940;3.998;2022-07-29T03:53:03;14.30;99.90
48946;DHT22;34999;50.940;3.998;2022-07-29T03:55:42;14.30;99.90
48946;DHT22;34999;50.940;3.998;2022-07-29T03:58:13;14.20;99.90
48946;DHT22;34999;50.940;3.998;2022-07-29T04:00:43;14.20;99.90
48946;DHT22;34999;50.940;3.998;2022-07-29T04:03:13;14.20;99.90
48946;DHT22;34999;50.940;3.998;2022-07-29T04:05:43;14.30;99.90
48946;DHT22;34999;50.940;3.998;2022-07-29T04:08:11;14.30;99.90
48946;DHT22;34999;50.940;3.998;2022-07-29T04:10:40;14.30;99.90
48946;DHT22;34999;50.940;3.998;2022-07-29T04:13:08;14.30;99.90
48946;DHT22;34999;50.940;3.998;2022-07-29T04:15:36;14.20;99.90
48946;DHT22;34999;50.940;3.998;2022-07-29T04:18:05;14.20;99.90
48946;DHT22;34999;50.940;3.998;2022-07-29T04:20:34;14.20;99.90
48946;DHT22;34999;50.940;3.998;2022-07-29T04:23:03;14.20;99.90
48946;DHT22;34999;50.940;3.998;2022-07-29T04:25:32;14.20;99.90
48946;DHT22;34999;50.940;3.998;2022-07-29T04:28:00;14.20;99.90
48946;DHT22;34999;50.940;3.998;2022-07-29T04:30:29;14.20;99.90
48946;DHT22;34999;50.940;3.998;2022-07-29T04:32:58;14.20;99.90
48946;DHT22;34999;50.940;3.998;2022-07-29T04:35:27;14.20;99.90
48946;DHT22;34999;50.940;3.998;2022-07-29T04:38:06;14.20;99.90
48946;DHT22;34999;50.940;3.998;2022-07-29T04:40:42;14.20;99.90
48946;DHT22;34999;50.940;3.998;2022-07-29T04:43:12;14.30;99.90
48946;DHT22;34999;50.940;3.998;2022-07-29T04:45:41;14.30;99.90
48946;DHT22;34999;50.940;3.998;2022-07-29T04:48:10;14.30;99.90
48946;DHT22;34999;50.940;3.998;2022-07-29T04:50:39;14.30;99.90
48946;DHT22;34999;50.940;3.998;2022-07-29T04:53:09;14.30;99.90
48946;DHT22;34999;50.940;3.998;2022-07-29T04:55:37;14.30;99.90
48946;DHT22;34999;50.940;3.998;2022-07-29T04:58:05;14.30;99.90
48946;DHT22;34999;50.940;3.998;2022-07-29T05:00:34;14.30;99.90
48946;DHT22;34999;50.940;3.998;2022-07-29T05:03:03;14.30;99.90
48946;DHT22;34999;50.940;3.998;2022-07-29T05:05:32;14.50;99.90
48946;DHT22;34999;50.940;3.998;2022-07-29T05:08:00;14.60;99.90
48946;DHT22;34999;50.940;3.998;2022-07-29T05:10:30;14.70;99.90
48946;DHT22;34999;50.940;3.998;2022-07-29T05:12:59;14.80;99.90
48946;DHT22;34999;50.940;3.998;2022-07-29T05:15:28;15.00;99.90
48946;DHT22;34999;50.940;3.998;2022-07-29T05:17:56;15.10;99.90
48946;DHT22;34999;50.940;3.998;2022-07-29T05:20:25;15.20;99.90
48946;DHT22;34999;50.940;3.998;2022-07-29T05:22:55;15.30;99.90
48946;DHT22;34999;50.940;3.998;2022-07-29T05:25:24;15.40;99.90
48946;DHT22;34999;50.940;3.998;2022-07-29T05:28:11;15.50;99.90
48946;DHT22;34999;50.940;3.998;2022-07-29T05:30:40;15.70;99.90
48946;DHT22;34999;50.940;3.998;2022-07-29T05:33:08;15.70;99.90
48946;DHT22;34999;50.940;3.998;2022-07-29T05:35:57;15.70;99.90
48946;DHT22;34999;50.940;3.998;2022-07-29T05:38:26;15.70;99.90
48946;DHT22;34999;50.940;3.998;2022-07-29T05:40:56;15.70;99.90
48946;DHT22;34999;50.940;3.998;2022-07-29T05:43:27;15.70;99.90
48946;DHT22;34999;50.940;3.998;2022-07-29T05:45:56;15.80;99.90
48946;DHT22;34999;50.940;3.998;2022-07-29T05:48:24;16.00;99.90
48946;DHT22;34999;50.940;3.998;2022-07-29T05:50:53;16.10;99.90
48946;DHT22;34999;50.940;3.998;2022-07-29T05:53:22;16.30;99.90
48946;DHT22;34999;50.940;3.998;2022-07-29T05:55:51;16.50;99.90
48946;DHT22;34999;50.940;3.998;2022-07-29T05:58:19;16.70;99.90
48946;DHT22;34999;50.940;3.998;2022-07-29T06:00:49;16.90;99.90
48946;DHT22;34999;50.940;3.998;2022-07-29T06:03:17;17.20;99.90
48946;DHT22;34999;50.940;3.998;2022-07-29T06:05:46;17.30;99.90
48946;DHT22;34999;50.940;3.998;2022-07-29T06:08:14;17.50;99.90
48946;DHT22;34999;50.940;3.998;2022-07-29T06:10:42;17.60;99.90
48946;DHT22;34999;50.940;3.998;2022-07-29T06:13:11;17.80;99.90
48946;DHT22;34999;50.940;3.998;2022-07-29T06:15:39;17.90;99.90
48946;DHT22;34999;50.940;3.998;2022-07-29T06:18:09;18.10;99.90
48946;DHT22;34999;50.940;3.998;2022-07-29T06:20:38;18.30;99.90
48946;DHT22;34999;50.940;3.998;2022-07-29T06:23:06;18.50;99.90
48946;DHT22;34999;50.940;3.998;2022-07-29T06:25:35;18.70;99.90
48946;DHT22;34999;50.940;3.998;2022-07-29T06:28:04;18.80;99.90
48946;DHT22;34999;50.940;3.998;2022-07-29T06:30:32;18.80;99.90
48946;DHT22;34999;50.940;3.998;2022-07-29T06:33:02;19.00;99.90
48946;DHT22;34999;50.940;3.998;2022-07-29T06:35:33;19.10;99.90
48946;DHT22;34999;50.940;3.998;2022-07-29T06:38:08;19.20;99.90
48946;DHT22;34999;50.940;3.998;2022-07-29T06:40:56;19.50;99.90
48946;DHT22;34999;50.940;3.998;2022-07-29T06:43:30;19.80;99.90
48946;DHT22;34999;50.940;3.998;2022-07-29T06:46:02;19.80;99.90
48946;DHT22;34999;50.940;3.998;2022-07-29T06:48:31;19.90;99.90
48946;DHT22;34999;50.940;3.998;2022-07-29T06:51:02;20.10;99.90
48946;DHT22;34999;50.940;3.998;2022-07-29T06:53:32;20.40;99.90
48946;DHT22;34999;50.940;3.998;2022-07-29T06:56:01;20.60;99.90
48946;DHT22;34999;50.940;3.998;2022-07-29T06:58:31;20.80;99.90
48946;DHT22;34999;50.940;3.998;2022-07-29T07:01:02;21.20;99.90
48946;DHT22;34999;50.940;3.998;2022-07-29T07:03:30;21.20;99.90
48946;DHT22;34999;50.940;3.998;2022-07-29T07:06:00;21.30;99.90
48946;DHT22;34999;50.940;3.998;2022-07-29T07:08:29;21.40;99.90
48946;DHT22;34999;50.940;3.998;2022-07-29T07:10:57;21.40;99.90
48946;DHT22;34999;50.940;3.998;2022-07-29T07:13:26;21.40;99.90
48946;DHT22;34999;50.940;3.998;2022-07-29T07:15:55;21.60;99.90
48946;DHT22;34999;50.940;3.998;2022-07-29T07:18:23;21.80;99.90
48946;DHT22;34999;50.940;3.998;2022-07-29T07:20:52;22.10;99.90
48946;DHT22;34999;50.940;3.998;2022-07-29T07:23:21;22.30;99.90
48946;DHT22;34999;50.940;3.998;2022-07-29T07:25:50;22.20;99.90
48946;DHT22;34999;50.940;3.998;2022-07-29T07:28:19;22.30;99.90
48946;DHT22;34999;50.940;3.998;2022-07-29T07:30:51;22.40;99.90
48946;DHT22;34999;50.940;3.998;2022-07-29T07:33:20;22.50;99.90
48946;DHT22;34999;50.940;3.998;2022-07-29T07:35:48;22.30;99.90
48946;DHT22;34999;50.940;3.998;2022-07-29T07:38:16;22.00;99.90
48946;DHT22;34999;50.940;3.998;2022-07-29T07:40:46;21.90;99.90
48946;DHT22;34999;50.940;3.998;2022-07-29T07:43:14;22.00;99.90
48946;DHT22;34999;50.940;3.998;2022-07-29T07:45:43;22.20;99.90
48946;DHT22;34999;50.940;3.998;2022-07-29T07:48:11;22.60;99.90
48946;DHT22;34999;50.940;3.998;2022-07-29T07:50:39;23.40;99.90
48946;DHT22;34999;50.940;3.998;2022-07-29T07:53:08;23.50;99.90
48946;DHT22;34999;50.940;3.998;2022-07-29T07:55:39;23.50;99.90
48946;DHT22;34999;50.940;3.998;2022-07-29T07:58:29;23.40;99.90
48946;DHT22;34999;50.940;3.998;2022-07-29T08:00:58;24.00;99.90
48946;DHT22;34999;50.940;3.998;2022-07-29T08:03:26;24.40;99.90
48946;DHT22;34999;50.940;3.998;2022-07-29T08:05:54;24.80;99.90
48946;DHT22;34999;50.940;3.998;2022-07-29T08:08:23;24.80;99.90
48946;DHT22;34999;50.940;3.998;2022-07-29T08:10:51;25.00;99.90
48946;DHT22;34999;50.940;3.998;2022-07-29T08:13:25;25.20;99.90
48946;DHT22;34999;50.940;3.998;2022-07-29T08:15:57;25.50;99.90
48946;DHT22;34999;50.940;3.998;2022-07-29T08:18:29;25.40;99.90
48946;DHT22;34999;50.940;3.998;2022-07-29T08:20:58;25.40;99.90
48946;DHT22;34999;50.940;3.998;2022-07-29T08:23:27;25.90;99.90
48946;DHT22;34999;50.940;3.998;2022-07-29T08:26:14;26.00;99.90
48946;DHT22;34999;50.940;3.998;2022-07-29T08:28:44;26.50;99.90
48946;DHT22;34999;50.940;3.998;2022-07-29T08:31:14;26.80;99.90
48946;DHT22;34999;50.940;3.998;2022-07-29T08:33:44;27.30;99.90
48946;DHT22;34999;50.940;3.998;2022-07-29T08:36:13;27.60;99.90
48946;DHT22;34999;50.940;3.998;2022-07-29T08:38:41;28.10;99.90
48946;DHT22;34999;50.940;3.998;2022-07-29T08:41:10;28.40;99.90
48946;DHT22;34999;50.940;3.998;2022-07-29T08:43:39;28.50;99.90
48946;DHT22;34999;50.940;3.998;2022-07-29T08:46:08;28.50;99.90
48946;DHT22;34999;50.940;3.998;2022-07-29T08:48:39;28.10;99.90
48946;DHT22;34999;50.940;3.998;2022-07-29T08:51:13;28.50;99.90
48946;DHT22;34999;50.940;3.998;2022-07-29T08:53:43;29.00;99.90
48946;DHT22;34999;50.940;3.998;2022-07-29T08:56:13;29.30;99.90
48946;DHT22;34999;50.940;3.998;2022-07-29T08:58:41;29.90;99.90
48946;DHT22;34999;50.940;3.998;2022-07-29T09:01:20;30.20;99.90
48946;DHT22;34999;50.940;3.998;2022-07-29T09:04:07;30.40;99.90
48946;DHT22;34999;50.940;3.998;2022-07-29T09:06:43;30.70;99.90
48946;DHT22;34999;50.940;3.998;2022-07-29T09:09:12;30.90;99.90
48946;DHT22;34999;50.940;3.998;2022-07-29T09:11:42;30.50;99.90
48946;DHT22;34999;50.940;3.998;2022-07-29T09:14:11;30.10;99.90
48946;DHT22;34999;50.940;3.998;2022-07-29T09:16:52;30.50;99.90
48946;DHT22;34999;50.940;3.998;2022-07-29T09:19:27;30.80;99.90
48946;DHT22;34999;50.940;3.998;2022-07-29T09:21:57;31.60;99.90
48946;DHT22;34999;50.940;3.998;2022-07-29T09:24:27;32.30;99.90
48946;DHT22;34999;50.940;3.998;2022-07-29T09:26:55;32.20;99.90
48946;DHT22;34999;50.940;3.998;2022-07-29T09:29:24;32.00;99.90
48946;DHT22;34999;50.940;3.998;2022-07-29T09:31:53;32.30;99.90
48946;DHT22;34999;50.940;3.998;2022-07-29T09:34:25;32.50;99.90
48946;DHT22;34999;50.940;3.998;2022-07-29T09:36:55;32.30;99.90
48946;DHT22;34999;50.940;3.998;2022-07-29T09:39:29;32.20;99.90
48946;DHT22;34999;50.940;3.998;2022-07-29T09:42:01;32.30;99.90
48946;DHT22;34999;50.940;3.998;2022-07-29T09:44:46;32.30;99.90
48946;DHT22;34999;50.940;3.998;2022-07-29T09:47:16;32.50;99.90
48946;DHT22;34999;50.940;3.998;2022-07-29T09:49:55;32.30;99.90
48946;DHT22;34999;50.940;3.998;2022-07-29T09:52:26;32.50;99.90
48946;DHT22;34999;50.940;3.998;2022-07-29T09:55:04;33.00;99.90
48946;DHT22;34999;50.940;3.998;2022-07-29T09:57:33;33.20;99.70
48946;DHT22;34999;50.940;3.998;2022-07-29T10:00:04;33.30;99.40
48946;DHT22;34999;50.940;3.998;2022-07-29T10:02:35;32.80;99.70
48946;DHT22;34999;50.940;3.998;2022-07-29T10:05:16;32.60;99.20
48946;DHT22;34999;50.940;3.998;2022-07-29T10:07:47;32.10;99.50
48946;DHT22;34999;50.940;3.998;2022-07-29T10:10:24;31.60;99.60
48946;DHT22;34999;50.940;3.998;2022-07-29T10:12:55;31.60;99.90
48946;DHT22;34999;50.940;3.998;2022-07-29T10:15:36;31.60;99.90
48946;DHT22;34999;50.940;3.998;2022-07-29T10:18:09;32.20;99.90
48946;DHT22;34999;50.940;3.998;2022-07-29T10:20:40;31.60;99.90
48946;DHT22;34999;50.940;3.998;2022-07-29T10:23:09;31.90;99.90
48946;DHT22;34999;50.940;3.998;2022-07-29T10:25:37;32.40;99.90
48946;DHT22;34999;50.940;3.998;2022-07-29T10:28:05;32.90;99.50
48946;DHT22;34999;50.940;3.998;2022-07-29T10:30:39;33.00;99.40
48946;DHT22;34999;50.940;3.998;2022-07-29T10:33:23;33.40;99.90
48946;DHT22;34999;50.940;3.998;2022-07-29T10:36:19;33.60;98.70
48946;DHT22;34999;50.940;3.998;2022-07-29T10:38:55;33.50;97.30
48946;DHT22;34999;50.940;3.998;2022-07-29T10:41:41;33.60;97.50
48946;DHT22;34999;50.940;3.998;2022-07-29T10:44:16;33.10;98.30
48946;DHT22;34999;50.940;3.998;2022-07-29T10:46:50;33.00;98.20
48946;DHT22;34999;50.940;3.998;2022-07-29T10:49:21;33.30;98.80
48946;DHT22;34999;50.940;3.998;2022-07-29T10:51:55;33.30;97.40
48946;DHT22;34999;50.940;3.998;2022-07-29T10:54:52;33.60;97.70
48946;DHT22;34999;50.940;3.998;2022-07-29T10:57:25;33.40;96.30
48946;DHT22;34999;50.940;3.998;2022-07-29T11:00:29;32.90;98.60
48946;DHT22;34999;50.940;3.998;2022-07-29T11:02:58;33.20;97.20
48946;DHT22;34999;50.940;3.998;2022-07-29T11:05:55;33.50;98.40
48946;DHT22;34999;50.940;3.998;2022-07-29T11:08:27;33.20;96.70
48946;DHT22;34999;50.940;3.998;2022-07-29T11:14:04;32.60;97.10
48946;DHT22;34999;50.940;3.998;2022-07-29T11:17:02;32.80;97.40
48946;DHT22;34999;50.940;3.998;2022-07-29T11:19:32;33.20;95.90
48946;DHT22;34999;50.940;3.998;2022-07-29T11:22:02;33.10;96.60
48946;DHT22;34999;50.940;3.998;2022-07-29T11:24:33;33.30;96.00
48946;DHT22;34999;50.940;3.998;2022-07-29T11:27:13;33.30;97.80
48946;DHT22;34999;50.940;3.998;2022-07-29T11:29:51;33.20;95.60
48946;DHT22;34999;50.940;3.998;2022-07-29T11:32:22;32.90;96.40
48946;DHT22;34999;50.940;3.998;2022-07-29T11:35:14;31.80;96.60
48946;DHT22;34999;50.940;3.998;2022-07-29T11:37:46;30.70;97.10
48946;DHT22;34999;50.940;3.998;2022-07-29T11:40:25;29.80;97.70
48946;DHT22;34999;50.940;3.998;2022-07-29T11:42:53;29.50;98.90
48946;DHT22;34999;50.940;3.998;2022-07-29T11:45:23;29.40;98.20
48946;DHT22;34999;50.940;3.998;2022-07-29T11:48:16;29.00;98.70
48946;DHT22;34999;50.940;3.998;2022-07-29T11:50:57;28.40;99.20
48946;DHT22;34999;50.940;3.998;2022-07-29T11:53:26;28.30;99.20
48946;DHT22;34999;50.940;3.998;2022-07-29T11:56:21;28.10;98.60
48946;DHT22;34999;50.940;3.998;2022-07-29T11:59:02;28.00;99.90
48946;DHT22;34999;50.940;3.998;2022-07-29T12:01:34;28.00;99.90
48946;DHT22;34999;50.940;3.998;2022-07-29T12:04:05;28.10;99.90
48946;DHT22;34999;50.940;3.998;2022-07-29T12:06:34;28.10;99.90
48946;DHT22;34999;50.940;3.998;2022-07-29T12:09:07;28.20;99.90
48946;DHT22;34999;50.940;3.998;2022-07-29T12:11:42;28.10;99.90
48946;DHT22;34999;50.940;3.998;2022-07-29T12:14:27;28.00;99.70
48946;DHT22;34999;50.940;3.998;2022-07-29T12:16:56;28.20;99.90
48946;DHT22;34999;50.940;3.998;2022-07-29T12:19:24;28.40;99.90
48946;DHT22;34999;50.940;3.998;2022-07-29T12:21:54;28.40;99.90
48946;DHT22;34999;50.940;3.998;2022-07-29T12:24:42;28.30;99.90
48946;DHT22;34999;50.940;3.998;2022-07-29T12:27:17;28.50;99.90
48946;DHT22;34999;50.940;3.998;2022-07-29T12:29:58;28.60;99.40
48946;DHT22;34999;50.940;3.998;2022-07-29T12:32:32;28.70;99.80
48946;DHT22;34999;50.940;3.998;2022-07-29T12:35:03;28.80;99.00
48946;DHT22;34999;50.940;3.998;2022-07-29T12:37:33;29.00;99.70
48946;DHT22;34999;50.940;3.998;2022-07-29T12:40:11;29.10;98.00
48946;DHT22;34999;50.940;3.998;2022-07-29T12:42:40;28.80;99.90
48946;DHT22;34999;50.940;3.998;2022-07-29T12:45:09;28.50;99.30
48946;DHT22;34999;50.940;3.998;2022-07-29T12:47:51;28.50;99.40
48946;DHT22;34999;50.940;3.998;2022-07-29T12:50:20;28.50;99.90
48946;DHT22;34999;50.940;3.998;2022-07-29T12:52:52;28.50;99.10
48946;DHT22;34999;50.940;3.998;2022-07-29T12:55:40;28.60;99.90
48946;DHT22;34999;50.940;3.998;2022-07-29T12:58:11;29.00;99.90
48946;DHT22;34999;50.940;3.998;2022-07-29T13:00:39;29.30;99.90
48946;DHT22;34999;50.940;3.998;2022-07-29T13:03:07;29.00;98.90
48946;DHT22;34999;50.940;3.998;2022-07-29T13:05:41;28.80;99.20
48946;DHT22;34999;50.940;3.998;2022-07-29T13:08:16;28.70;98.60
48946;DHT22;34999;50.940;3.998;2022-07-29T13:10:48;28.90;99.90
48946;DHT22;34999;50.940;3.998;2022-07-29T13:13:18;29.10;99.90
48946;DHT22;34999;50.940;3.998;2022-07-29T13:15:46;29.20;99.80
48946;DHT22;34999;50.940;3.998;2022-07-29T13:18:34;29.10;98.30
48946;DHT22;34999;50.940;3.998;2022-07-29T13:21:11;29.30;99.90
48946;DHT22;34999;50.940;3.998;2022-07-29T13:23:40;29.50;99.90
48946;DHT22;34999;50.940;3.998;2022-07-29T13:26:08;29.20;99.40
48946;DHT22;34999;50.940;3.998;2022-07-29T13:28:40;28.60;98.40
48946;DHT22;34999;50.940;3.998;2022-07-29T13:31:10;28.20;98.40
48946;DHT22;34999;50.940;3.998;2022-07-29T13:33:38;28.00;99.90
48946;DHT22;34999;50.940;3.998;2022-07-29T13:36:07;28.10;99.70
48946;DHT22;34999;50.940;3.998;2022-07-29T13:38:35;28.40;99.20
48946;DHT22;34999;50.940;3.998;2022-07-29T13:41:03;28.80;99.90
48946;DHT22;34999;50.940;3.998;2022-07-29T13:43:32;29.10;99.80
48946;DHT22;34999;50.940;3.998;2022-07-29T13:46:02;29.50;99.70
48946;DHT22;34999;50.940;3.998;2022-07-29T13:48:31;29.70;99.40
48946;DHT22;34999;50.940;3.998;2022-07-29T13:50:59;29.80;99.40
48946;DHT22;34999;50.940;3.998;2022-07-29T13:53:27;29.90;99.50
48946;DHT22;34999;50.940;3.998;2022-07-29T13:55:56;30.00;99.90
48946;DHT22;34999;50.940;3.998;2022-07-29T13:58:24;30.00;99.70
48946;DHT22;34999;50.940;3.998;2022-07-29T14:00:52;29.80;99.10
48946;DHT22;34999;50.940;3.998;2022-07-29T14:03:22;29.30;99.20
48946;DHT22;34999;50.940;3.998;2022-07-29T14:05:51;28.70;98.30
48946;DHT22;34999;50.940;3.998;2022-07-29T14:08:19;28.90;99.70
48946;DHT22;34999;50.940;3.998;2022-07-29T14:10:50;29.30;99.40
48946;DHT22;34999;50.940;3.998;2022-07-29T14:13:18;29.80;99.90
48946;DHT22;34999;50.940;3.998;2022-07-29T14:15:51;30.10;99.20
48946;DHT22;34999;50.940;3.998;2022-07-29T14:18:21;30.10;98.10
48946;DHT22;34999;50.940;3.998;2022-07-29T14:20:50;30.30;97.30
48946;DHT22;34999;50.940;3.998;2022-07-29T14:23:18;30.30;99.90
48946;DHT22;34999;50.940;3.998;2022-07-29T14:25:47;30.40;99.00
48946;DHT22;34999;50.940;3.998;2022-07-29T14:28:15;30.10;98.30
48946;DHT22;34999;50.940;3.998;2022-07-29T14:30:43;29.70;98.60
48946;DHT22;34999;50.940;3.998;2022-07-29T14:33:12;29.30;98.60
48946;DHT22;34999;50.940;3.998;2022-07-29T14:35:41;28.80;98.30
48946;DHT22;34999;50.940;3.998;2022-07-29T14:38:10;28.60;98.90
48946;DHT22;34999;50.940;3.998;2022-07-29T14:40:38;28.40;98.90
48946;DHT22;34999;50.940;3.998;2022-07-29T14:43:06;28.40;99.90
48946;DHT22;34999;50.940;3.998;2022-07-29T14:45:35;28.70;99.50
48946;DHT22;34999;50.940;3.998;2022-07-29T14:48:04;29.20;99.90
48946;DHT22;34999;50.940;3.998;2022-07-29T14:50:32;29.70;99.90
48946;DHT22;34999;50.940;3.998;2022-07-29T14:53:02;29.90;99.20
48946;DHT22;34999;50.940;3.998;2022-07-29T14:55:30;30.10;99.00
48946;DHT22;34999;50.940;3.998;2022-07-29T14:57:58;30.00;98.60
48946;DHT22;34999;50.940;3.998;2022-07-29T15:00:36;29.60;98.40
48946;DHT22;34999;50.940;3.998;2022-07-29T15:03:05;29.20;99.40
48946;DHT22;34999;50.940;3.998;2022-07-29T15:05:37;29.50;99.90
48946;DHT22;34999;50.940;3.998;2022-07-29T15:08:07;29.60;97.90
48946;DHT22;34999;50.940;3.998;2022-07-29T15:10:36;29.80;99.90
48946;DHT22;34999;50.940;3.998;2022-07-29T15:13:04;29.70;99.00
48946;DHT22;34999;50.940;3.998;2022-07-29T15:15:32;29.70;98.10
48946;DHT22;34999;50.940;3.998;2022-07-29T15:18:01;29.60;98.10
48946;DHT22;34999;50.940;3.998;2022-07-29T15:20:29;29.40;98.90
48946;DHT22;34999;50.940;3.998;2022-07-29T15:22:57;29.60;99.00
48946;DHT22;34999;50.940;3.998;2022-07-29T15:25:27;30.00;99.80
48946;DHT22;34999;50.940;3.998;2022-07-29T15:27:55;30.30;99.20
48946;DHT22;34999;50.940;3.998;2022-07-29T15:30:29;30.40;98.30
48946;DHT22;34999;50.940;3.998;2022-07-29T15:33:00;30.40;99.10
48946;DHT22;34999;50.940;3.998;2022-07-29T15:35:29;30.60;99.90
48946;DHT22;34999;50.940;3.998;2022-07-29T15:37:57;30.80;97.70
48946;DHT22;34999;50.940;3.998;2022-07-29T15:40:27;30.80;99.20
48946;DHT22;34999;50.940;3.998;2022-07-29T15:42:55;30.80;98.40
48946;DHT22;34999;50.940;3.998;2022-07-29T15:45:24;30.80;98.50
48946;DHT22;34999;50.940;3.998;2022-07-29T15:47:58;30.50;98.90
48946;DHT22;34999;50.940;3.998;2022-07-29T15:50:26;30.00;98.40
48946;DHT22;34999;50.940;3.998;2022-07-29T15:52:55;29.40;98.10
48946;DHT22;34999;50.940;3.998;2022-07-29T15:55:23;29.20;99.40
48946;DHT22;34999;50.940;3.998;2022-07-29T15:57:53;29.20;99.40
48946;DHT22;34999;50.940;3.998;2022-07-29T16:00:27;29.50;99.90
48946;DHT22;34999;50.940;3.998;2022-07-29T16:03:10;29.60;99.60
48946;DHT22;34999;50.940;3.998;2022-07-29T16:05:38;29.60;99.90